sensor_id;sensor_type;location;lat;lon;timestamp;pressure;altitude;pressure_sealevel;temperature;humidity
80620;BME280;69979;53.682;-2.690;2023-07-13T00:02:22;100838.32;;;16.27;49.46
80620;BME280;69979;53.682;-2.690;2023-07-13T00:04:48;100842.57;;;14.98;52.30
80620;BME280;69979;53.682;-2.690;2023-07-13T00:07:13;100840.83;;;14.56;52.91
80620;BME280;69979;53.682;-2.690;2023-07-13T00:09:39;100840.60;;;14.98;52.67
80620;BME280;69979;53.682;-2.690;2023-07-13T00:12:19;100842.24;;;15.01;53.16
80620;BME280;69979;53.682;-2.690;2023-07-13T00:14:30;100840.47;;;15.37;51.54
80620;BME280;69979;53.682;-2.690;2023-07-13T00:16:56;100845.11;;;16.37;49.63
80620;BME280;69979;53.682;-2.690;2023-07-13T00:19:21;100850.76;;;14.88;53.67
80620;BME280;69979;53.682;-2.690;2023-07-13T00:21:46;100850.02;;;13.49;56.74
80620;BME280;69979;53.682;-2.690;2023-07-13T00:24:18;100849.94;;;12.48;60.10
80620;BME280;69979;53.682;-2.690;2023-07-13T00:26:37;100848.39;;;12.96;59.31
80620;BME280;69979;53.682;-2.690;2023-07-13T00:29:03;100851.94;;;12.30;61.47
80620;BME280;69979;53.682;-2.690;2023-07-13T00:31:28;100847.45;;;12.95;59.93
80620;BME280;69979;53.682;-2.690;2023-07-13T00:33:54;100846.09;;;13.80;57.72
80620;BME280;69979;53.682;-2.690;2023-07-13T00:36:19;100847.20;;;13.10;59.04
80620;BME280;69979;53.682;-2.690;2023-07-13T00:38:45;100848.42;;;14.54;56.23
80620;BME280;69979;53.682;-2.690;2023-07-13T00:41:10;100848.11;;;14.08;56.61
80620;BME280;69979;53.682;-2.690;2023-07-13T00:43:36;100844.31;;;15.23;53.42
80620;BME280;69979;53.682;-2.690;2023-07-13T00:46:13;100844.98;;;14.33;55.33
80620;BME280;69979;53.682;-2.690;2023-07-13T00:48:31;100838.62;;;15.70;52.02
80620;BME280;69979;53.682;-2.690;2023-07-13T00:50:54;100838.83;;;15.72;51.77
80620;BME280;69979;53.682;-2.690;2023-07-13T00:53:18;100846.67;;;14.69;53.83
80620;BME280;69979;53.682;-2.690;2023-07-13T00:55:43;100835.94;;;15.58;52.08
80620;BME280;69979;53.682;-2.690;2023-07-13T00:58:08;100833.84;;;16.21;50.67
80620;BME280;69979;53.682;-2.690;2023-07-13T01:00:35;100837.25;;;16.27;50.14
80620;BME280;69979;53.682;-2.690;2023-07-13T01:02:59;100837.63;;;16.04;50.79
80620;BME280;69979;53.682;-2.690;2023-07-13T01:05:25;100840.69;;;16.90;49.28
80620;BME280;69979;53.682;-2.690;2023-07-13T01:07:51;100840.17;;;16.67;48.90
80620;BME280;69979;53.682;-2.690;2023-07-13T01:10:16;100839.31;;;17.48;48.03
80620;BME280;69979;53.682;-2.690;2023-07-13T01:12:41;100841.55;;;17.63;47.35
80620;BME280;69979;53.682;-2.690;2023-07-13T01:17:33;100842.76;;;17.50;47.21
80620;BME280;69979;53.682;-2.690;2023-07-13T01:19:57;100838.49;;;17.99;46.60
80620;BME280;69979;53.682;-2.690;2023-07-13T01:22:23;100840.17;;;18.01;45.93
80620;BME280;69979;53.682;-2.690;2023-07-13T01:24:48;100841.32;;;17.38;46.96
80620;BME280;69979;53.682;-2.690;2023-07-13T01:27:20;100849.64;;;16.98;48.11
80620;BME280;69979;53.682;-2.690;2023-07-13T01:29:40;100854.56;;;18.17;46.26
80620;BME280;69979;53.682;-2.690;2023-07-13T01:32:05;100855.84;;;18.22;45.79
80620;BME280;69979;53.682;-2.690;2023-07-13T01:34:29;100859.37;;;18.00;45.37
80620;BME280;69979;53.682;-2.690;2023-07-13T01:36:55;100861.59;;;18.59;44.66
80620;BME280;69979;53.682;-2.690;2023-07-13T01:39:21;100861.68;;;18.45;44.64
80620;BME280;69979;53.682;-2.690;2023-07-13T01:41:46;100858.41;;;17.99;45.38
80620;BME280;69979;53.682;-2.690;2023-07-13T01:44:11;100859.20;;;18.40;44.94
80620;BME280;69979;53.682;-2.690;2023-07-13T01:46:36;100857.87;;;17.81;45.96
80620;BME280;69979;53.682;-2.690;2023-07-13T01:49:02;100859.79;;;18.05;45.47
80620;BME280;69979;53.682;-2.690;2023-07-13T01:51:27;100860.99;;;18.22;45.49
80620;BME280;69979;53.682;-2.690;2023-07-13T01:53:53;100860.52;;;18.30;45.01
80620;BME280;69979;53.682;-2.690;2023-07-13T01:56:18;100854.99;;;18.15;45.48
80620;BME280;69979;53.682;-2.690;2023-07-13T01:58:45;100854.06;;;17.81;46.03
80620;BME280;69979;53.682;-2.690;2023-07-13T02:01:09;100854.64;;;17.93;45.71
80620;BME280;69979;53.682;-2.690;2023-07-13T02:03:34;100855.57;;;16.25;49.32
80620;BME280;69979;53.682;-2.690;2023-07-13T02:06:00;100854.15;;;16.47;48.87
80620;BME280;69979;53.682;-2.690;2023-07-13T02:08:25;100857.47;;;16.13;49.32
80620;BME280;69979;53.682;-2.690;2023-07-13T02:10:51;100857.48;;;16.15;49.48
80620;BME280;69979;53.682;-2.690;2023-07-13T02:13:16;100861.37;;;16.28;49.66
80620;BME280;69979;53.682;-2.690;2023-07-13T02:15:42;100860.37;;;16.92;49.20
80620;BME280;69979;53.682;-2.690;2023-07-13T02:18:07;100857.81;;;15.79;50.56
80620;BME280;69979;53.682;-2.690;2023-07-13T02:20:33;100857.72;;;15.48;51.35
80620;BME280;69979;53.682;-2.690;2023-07-13T02:22:58;100860.41;;;15.07;52.73
80620;BME280;69979;53.682;-2.690;2023-07-13T02:25:23;100859.06;;;15.35;52.26
80620;BME280;69979;53.682;-2.690;2023-07-13T02:27:49;100855.52;;;15.63;51.62
80620;BME280;69979;53.682;-2.690;2023-07-13T02:30:19;100859.90;;;14.58;54.13
80620;BME280;69979;53.682;-2.690;2023-07-13T02:32:40;100854.80;;;15.36;52.50
80620;BME280;69979;53.682;-2.690;2023-07-13T02:35:06;100849.88;;;15.54;52.04
80620;BME280;69979;53.682;-2.690;2023-07-13T02:37:30;100852.44;;;15.77;51.57
80620;BME280;69979;53.682;-2.690;2023-07-13T02:39:56;100858.95;;;15.54;52.35
80620;BME280;69979;53.682;-2.690;2023-07-13T02:42:21;100861.05;;;14.81;53.42
80620;BME280;69979;53.682;-2.690;2023-07-13T02:44:47;100857.75;;;15.15;52.63
80620;BME280;69979;53.682;-2.690;2023-07-13T02:47:12;100858.39;;;15.18;52.45
80620;BME280;69979;53.682;-2.690;2023-07-13T02:49:38;100855.22;;;16.19;50.83
80620;BME280;69979;53.682;-2.690;2023-07-13T02:52:04;100857.32;;;16.19;49.77
80620;BME280;69979;53.682;-2.690;2023-07-13T02:54:29;100859.44;;;16.41;49.64
80620;BME280;69979;53.682;-2.690;2023-07-13T02:56:54;100854.32;;;16.15;50.18
80620;BME280;69979;53.682;-2.690;2023-07-13T02:59:20;100853.72;;;16.45;49.40
80620;BME280;69979;53.682;-2.690;2023-07-13T03:01:45;100851.49;;;15.19;51.97
80620;BME280;69979;53.682;-2.690;2023-07-13T03:04:10;100848.91;;;16.19;50.81
80620;BME280;69979;53.682;-2.690;2023-07-13T03:06:36;100845.90;;;16.77;48.62
80620;BME280;69979;53.682;-2.690;2023-07-13T03:09:02;100844.59;;;17.05;48.36
80620;BME280;69979;53.682;-2.690;2023-07-13T03:11:27;100845.74;;;17.30;47.56
80620;BME280;69979;53.682;-2.690;2023-07-13T03:13:52;100846.16;;;17.76;46.62
80620;BME280;69979;53.682;-2.690;2023-07-13T03:16:18;100849.13;;;17.59;46.55
80620;BME280;69979;53.682;-2.690;2023-07-13T03:18:43;100846.16;;;17.80;45.57
80620;BME280;69979;53.682;-2.690;2023-07-13T03:21:09;100848.54;;;17.84;45.75
80620;BME280;69979;53.682;-2.690;2023-07-13T03:23:34;100847.39;;;17.59;45.65
80620;BME280;69979;53.682;-2.690;2023-07-13T03:26:05;100844.55;;;17.90;45.98
80620;BME280;69979;53.682;-2.690;2023-07-13T03:28:25;100847.96;;;17.40;46.45
80620;BME280;69979;53.682;-2.690;2023-07-13T03:30:59;100848.40;;;17.31;46.55
80620;BME280;69979;53.682;-2.690;2023-07-13T03:33:16;100848.85;;;17.04;46.76
80620;BME280;69979;53.682;-2.690;2023-07-13T03:35:41;100848.89;;;17.18;47.21
80620;BME280;69979;53.682;-2.690;2023-07-13T03:38:06;100851.77;;;16.80;47.16
80620;BME280;69979;53.682;-2.690;2023-07-13T03:40:32;100851.35;;;17.14;46.76
80620;BME280;69979;53.682;-2.690;2023-07-13T03:42:57;100855.71;;;17.12;47.04
80620;BME280;69979;53.682;-2.690;2023-07-13T03:45:23;100855.02;;;17.01;47.15
80620;BME280;69979;53.682;-2.690;2023-07-13T03:47:48;100849.76;;;17.12;47.19
80620;BME280;69979;53.682;-2.690;2023-07-13T03:50:14;100852.35;;;16.88;47.45
80620;BME280;69979;53.682;-2.690;2023-07-13T03:52:39;100855.68;;;16.75;47.88
80620;BME280;69979;53.682;-2.690;2023-07-13T03:55:05;100855.77;;;16.82;47.45
80620;BME280;69979;53.682;-2.690;2023-07-13T03:57:30;100857.67;;;16.87;47.35
80620;BME280;69979;53.682;-2.690;2023-07-13T03:59:55;100855.98;;;16.33;48.49
80620;BME280;69979;53.682;-2.690;2023-07-13T04:02:21;100854.57;;;16.28;48.93
80620;BME280;69979;53.682;-2.690;2023-07-13T04:04:46;100855.32;;;16.83;47.50
80620;BME280;69979;53.682;-2.690;2023-07-13T04:07:12;100857.25;;;16.78;48.39
80620;BME280;69979;53.682;-2.690;2023-07-13T04:09:37;100860.48;;;16.81;47.50
80620;BME280;69979;53.682;-2.690;2023-07-13T04:12:03;100860.31;;;16.98;47.19
80620;BME280;69979;53.682;-2.690;2023-07-13T04:14:28;100858.71;;;17.38;46.24
80620;BME280;69979;53.682;-2.690;2023-07-13T04:16:53;100860.35;;;17.34;46.58
80620;BME280;69979;53.682;-2.690;2023-07-13T04:19:19;100863.21;;;17.42;46.11
80620;BME280;69979;53.682;-2.690;2023-07-13T04:21:44;100871.12;;;16.95;47.32
80620;BME280;69979;53.682;-2.690;2023-07-13T04:24:10;100871.17;;;15.90;49.56
80620;BME280;69979;53.682;-2.690;2023-07-13T04:26:35;100881.33;;;15.09;51.22
80620;BME280;69979;53.682;-2.690;2023-07-13T04:29:01;100885.12;;;14.74;51.85
80620;BME280;69979;53.682;-2.690;2023-07-13T04:31:26;100882.05;;;15.50;50.81
80620;BME280;69979;53.682;-2.690;2023-07-13T04:33:52;100879.05;;;15.34;51.02
80620;BME280;69979;53.682;-2.690;2023-07-13T04:36:17;100882.14;;;15.47;50.63
80620;BME280;69979;53.682;-2.690;2023-07-13T04:38:43;100884.38;;;15.90;50.08
80620;BME280;69979;53.682;-2.690;2023-07-13T04:41:09;100891.55;;;16.28;49.40
80620;BME280;69979;53.682;-2.690;2023-07-13T04:43:34;100896.92;;;16.16;48.55
80620;BME280;69979;53.682;-2.690;2023-07-13T04:46:03;100894.25;;;16.08;49.25
80620;BME280;69979;53.682;-2.690;2023-07-13T04:48:24;100900.68;;;16.32;49.26
80620;BME280;69979;53.682;-2.690;2023-07-13T04:50:55;100897.29;;;16.01;49.29
80620;BME280;69979;53.682;-2.690;2023-07-13T04:53:15;100898.62;;;15.76;49.69
80620;BME280;69979;53.682;-2.690;2023-07-13T04:55:41;100904.08;;;16.52;48.33
80620;BME280;69979;53.682;-2.690;2023-07-13T04:58:07;100902.84;;;16.87;48.08
80620;BME280;69979;53.682;-2.690;2023-07-13T05:00:32;100901.38;;;16.00;49.55
80620;BME280;69979;53.682;-2.690;2023-07-13T05:02:58;100904.10;;;16.14;49.13
80620;BME280;69979;53.682;-2.690;2023-07-13T05:05:23;100911.74;;;16.47;48.80
80620;BME280;69979;53.682;-2.690;2023-07-13T05:07:48;100913.63;;;16.54;47.82
80620;BME280;69979;53.682;-2.690;2023-07-13T05:10:14;100910.45;;;16.56;47.83
80620;BME280;69979;53.682;-2.690;2023-07-13T05:12:39;100912.07;;;16.76;47.35
80620;BME280;69979;53.682;-2.690;2023-07-13T05:15:05;100917.01;;;17.20;46.25
80620;BME280;69979;53.682;-2.690;2023-07-13T05:17:30;100917.16;;;17.11;46.05
80620;BME280;69979;53.682;-2.690;2023-07-13T05:19:55;100919.34;;;16.92;47.34
80620;BME280;69979;53.682;-2.690;2023-07-13T05:22:21;100917.65;;;17.07;46.21
80620;BME280;69979;53.682;-2.690;2023-07-13T05:24:46;100917.33;;;17.19;46.54
80620;BME280;69979;53.682;-2.690;2023-07-13T05:27:12;100916.98;;;15.81;48.21
80620;BME280;69979;53.682;-2.690;2023-07-13T05:29:37;100917.85;;;16.13;48.87
80620;BME280;69979;53.682;-2.690;2023-07-13T05:32:03;100924.88;;;15.70;48.81
80620;BME280;69979;53.682;-2.690;2023-07-13T05:34:28;100931.26;;;15.78;49.40
80620;BME280;69979;53.682;-2.690;2023-07-13T05:36:53;100940.12;;;14.66;51.89
80620;BME280;69979;53.682;-2.690;2023-07-13T05:39:19;100940.31;;;15.51;50.41
80620;BME280;69979;53.682;-2.690;2023-07-13T05:41:44;100942.45;;;15.29;50.81
80620;BME280;69979;53.682;-2.690;2023-07-13T05:44:10;100946.44;;;15.26;50.79
80620;BME280;69979;53.682;-2.690;2023-07-13T05:46:35;100944.81;;;15.83;49.08
80620;BME280;69979;53.682;-2.690;2023-07-13T05:49:01;100950.01;;;15.76;49.45
80620;BME280;69979;53.682;-2.690;2023-07-13T05:51:26;100953.14;;;14.59;52.36
80620;BME280;69979;53.682;-2.690;2023-07-13T05:53:51;100949.91;;;14.58;52.67
80620;BME280;69979;53.682;-2.690;2023-07-13T05:56:17;100953.86;;;13.71;53.06
80620;BME280;69979;53.682;-2.690;2023-07-13T05:58:42;100958.23;;;15.42;50.74
80620;BME280;69979;53.682;-2.690;2023-07-13T06:01:11;100962.88;;;15.23;49.94
80620;BME280;69979;53.682;-2.690;2023-07-13T06:03:39;100968.53;;;14.87;50.02
80620;BME280;69979;53.682;-2.690;2023-07-13T06:05:59;100968.75;;;15.54;49.50
80620;BME280;69979;53.682;-2.690;2023-07-13T06:08:24;100971.51;;;14.24;51.20
80620;BME280;69979;53.682;-2.690;2023-07-13T06:10:50;100973.45;;;15.76;49.12
80620;BME280;69979;53.682;-2.690;2023-07-13T06:13:15;100970.66;;;16.19;48.21
80620;BME280;69979;53.682;-2.690;2023-07-13T06:15:41;100974.94;;;16.24;47.55
80620;BME280;69979;53.682;-2.690;2023-07-13T06:18:06;100976.72;;;16.38;47.43
80620;BME280;69979;53.682;-2.690;2023-07-13T06:20:34;100978.03;;;16.36;47.33
80620;BME280;69979;53.682;-2.690;2023-07-13T06:22:57;100978.55;;;13.80;52.73
80620;BME280;69979;53.682;-2.690;2023-07-13T06:25:22;100984.21;;;15.11;50.25
80620;BME280;69979;53.682;-2.690;2023-07-13T06:27:48;100985.70;;;15.47;49.29
80620;BME280;69979;53.682;-2.690;2023-07-13T06:30:13;100981.74;;;16.34;47.42
80620;BME280;69979;53.682;-2.690;2023-07-13T06:32:39;100985.50;;;15.98;47.47
80620;BME280;69979;53.682;-2.690;2023-07-13T06:35:09;100985.83;;;16.39;47.92
80620;BME280;69979;53.682;-2.690;2023-07-13T06:37:30;100985.52;;;17.10;46.46
80620;BME280;69979;53.682;-2.690;2023-07-13T06:39:55;100984.80;;;15.76;49.17
80620;BME280;69979;53.682;-2.690;2023-07-13T06:42:20;100980.07;;;16.73;47.77
80620;BME280;69979;53.682;-2.690;2023-07-13T06:44:46;100983.12;;;17.40;46.06
80620;BME280;69979;53.682;-2.690;2023-07-13T06:47:12;100983.02;;;16.48;47.40
80620;BME280;69979;53.682;-2.690;2023-07-13T06:49:37;100993.87;;;14.93;49.86
80620;BME280;69979;53.682;-2.690;2023-07-13T06:52:03;100996.72;;;15.26;49.46
80620;BME280;69979;53.682;-2.690;2023-07-13T06:54:28;100996.20;;;13.33;54.37
80620;BME280;69979;53.682;-2.690;2023-07-13T06:56:53;100994.68;;;14.70;51.92
80620;BME280;69979;53.682;-2.690;2023-07-13T06:59:19;100997.68;;;13.99;53.07
80620;BME280;69979;53.682;-2.690;2023-07-13T07:01:44;101004.86;;;13.33;54.93
80620;BME280;69979;53.682;-2.690;2023-07-13T07:04:09;101001.88;;;14.98;51.77
80620;BME280;69979;53.682;-2.690;2023-07-13T07:06:35;101003.85;;;15.26;50.15
80620;BME280;69979;53.682;-2.690;2023-07-13T07:09:00;101005.25;;;14.18;52.91
80620;BME280;69979;53.682;-2.690;2023-07-13T07:11:26;101005.08;;;13.78;54.50
80620;BME280;69979;53.682;-2.690;2023-07-13T07:13:52;101004.33;;;13.15;54.10
80620;BME280;69979;53.682;-2.690;2023-07-13T07:16:17;101007.31;;;13.50;53.81
80620;BME280;69979;53.682;-2.690;2023-07-13T07:18:42;101012.52;;;13.87;51.86
80620;BME280;69979;53.682;-2.690;2023-07-13T07:21:07;101014.37;;;12.94;54.73
80620;BME280;69979;53.682;-2.690;2023-07-13T07:23:33;101017.82;;;13.92;52.81
80620;BME280;69979;53.682;-2.690;2023-07-13T07:25:58;101019.36;;;14.43;51.46
80620;BME280;69979;53.682;-2.690;2023-07-13T07:28:24;101015.97;;;14.10;51.96
80620;BME280;69979;53.682;-2.690;2023-07-13T07:30:53;101017.86;;;13.77;52.06
80620;BME280;69979;53.682;-2.690;2023-07-13T07:33:15;101023.16;;;13.53;53.50
80620;BME280;69979;53.682;-2.690;2023-07-13T07:35:40;101019.56;;;14.18;52.78
80620;BME280;69979;53.682;-2.690;2023-07-13T07:38:06;101023.25;;;14.13;50.85
80620;BME280;69979;53.682;-2.690;2023-07-13T07:40:31;101030.08;;;12.36;55.13
80620;BME280;69979;53.682;-2.690;2023-07-13T07:42:57;101030.19;;;12.53;53.48
80620;BME280;69979;53.682;-2.690;2023-07-13T07:45:22;101029.16;;;14.64;49.48
80620;BME280;69979;53.682;-2.690;2023-07-13T07:47:48;101030.98;;;13.78;50.83
80620;BME280;69979;53.682;-2.690;2023-07-13T07:50:13;101033.68;;;13.37;51.83
80620;BME280;69979;53.682;-2.690;2023-07-13T07:52:38;101034.22;;;12.66;54.40
80620;BME280;69979;53.682;-2.690;2023-07-13T07:55:05;101028.35;;;14.79;49.73
80620;BME280;69979;53.682;-2.690;2023-07-13T07:57:29;101032.92;;;14.28;49.48
80620;BME280;69979;53.682;-2.690;2023-07-13T07:59:54;101031.58;;;14.52;50.14
80620;BME280;69979;53.682;-2.690;2023-07-13T08:02:20;101041.15;;;13.51;51.66
80620;BME280;69979;53.682;-2.690;2023-07-13T08:04:45;101038.26;;;14.17;50.04
80620;BME280;69979;53.682;-2.690;2023-07-13T08:07:11;101040.36;;;15.01;49.80
80620;BME280;69979;53.682;-2.690;2023-07-13T08:09:37;101043.71;;;13.47;52.26
80620;BME280;69979;53.682;-2.690;2023-07-13T08:12:02;101047.65;;;13.73;52.26
80620;BME280;69979;53.682;-2.690;2023-07-13T08:14:27;101045.11;;;13.03;53.44
80620;BME280;69979;53.682;-2.690;2023-07-13T08:16:53;101044.86;;;13.03;53.70
80620;BME280;69979;53.682;-2.690;2023-07-13T08:19:18;101045.83;;;14.05;51.71
80620;BME280;69979;53.682;-2.690;2023-07-13T08:21:44;101043.10;;;14.39;50.17
80620;BME280;69979;53.682;-2.690;2023-07-13T08:24:09;101046.44;;;14.37;50.89
80620;BME280;69979;53.682;-2.690;2023-07-13T08:26:34;101049.58;;;13.95;50.79
80620;BME280;69979;53.682;-2.690;2023-07-13T08:29:00;101046.88;;;13.87;50.46
80620;BME280;69979;53.682;-2.690;2023-07-13T08:31:25;101050.01;;;12.61;52.39
80620;BME280;69979;53.682;-2.690;2023-07-13T08:33:51;101047.78;;;13.03;52.24
80620;BME280;69979;53.682;-2.690;2023-07-13T08:36:16;101049.90;;;13.52;48.80
80620;BME280;69979;53.682;-2.690;2023-07-13T08:38:42;101048.55;;;13.57;48.63
80620;BME280;69979;53.682;-2.690;2023-07-13T08:41:14;101054.90;;;15.05;47.01
80620;BME280;69979;53.682;-2.690;2023-07-13T08:43:36;101053.18;;;13.86;48.02
80620;BME280;69979;53.682;-2.690;2023-07-13T08:46:02;101051.11;;;13.36;49.64
80620;BME280;69979;53.682;-2.690;2023-07-13T08:48:27;101058.04;;;13.70;49.37
80620;BME280;69979;53.682;-2.690;2023-07-13T08:50:54;101054.46;;;13.14;50.84
80620;BME280;69979;53.682;-2.690;2023-07-13T08:53:15;101059.73;;;12.57;53.66
80620;BME280;69979;53.682;-2.690;2023-07-13T08:55:40;101059.14;;;12.90;52.34
80620;BME280;69979;53.682;-2.690;2023-07-13T08:58:10;101055.81;;;12.86;52.50
80620;BME280;69979;53.682;-2.690;2023-07-13T09:00:40;101055.63;;;12.70;53.53
80620;BME280;69979;53.682;-2.690;2023-07-13T09:02:57;101058.05;;;13.86;51.36
80620;BME280;69979;53.682;-2.690;2023-07-13T09:05:27;101058.27;;;14.09;50.05
80620;BME280;69979;53.682;-2.690;2023-07-13T09:08:01;101059.48;;;14.09;49.37
80620;BME280;69979;53.682;-2.690;2023-07-13T09:10:16;101060.61;;;14.66;48.77
80620;BME280;69979;53.682;-2.690;2023-07-13T09:12:46;101063.29;;;15.51;46.86
80620;BME280;69979;53.682;-2.690;2023-07-13T09:15:07;101059.74;;;13.29;50.85
80620;BME280;69979;53.682;-2.690;2023-07-13T09:17:32;101062.86;;;13.51;51.45
80620;BME280;69979;53.682;-2.690;2023-07-13T09:19:59;101062.33;;;13.54;50.02
80620;BME280;69979;53.682;-2.690;2023-07-13T09:22:21;101068.27;;;13.38;51.30
80620;BME280;69979;53.682;-2.690;2023-07-13T09:24:52;101071.04;;;13.82;51.82
80620;BME280;69979;53.682;-2.690;2023-07-13T09:27:15;101070.76;;;14.55;50.43
80620;BME280;69979;53.682;-2.690;2023-07-13T09:29:37;101073.90;;;13.57;53.89
80620;BME280;69979;53.682;-2.690;2023-07-13T09:32:05;101075.51;;;13.47;53.14
80620;BME280;69979;53.682;-2.690;2023-07-13T09:34:28;101073.69;;;13.47;53.25
80620;BME280;69979;53.682;-2.690;2023-07-13T09:36:52;101075.41;;;13.44;52.68
80620;BME280;69979;53.682;-2.690;2023-07-13T09:39:24;101074.69;;;13.63;52.62
80620;BME280;69979;53.682;-2.690;2023-07-13T09:41:48;101072.20;;;13.14;54.20
80620;BME280;69979;53.682;-2.690;2023-07-13T09:44:10;101068.44;;;14.16;51.07
80620;BME280;69979;53.682;-2.690;2023-07-13T09:46:34;101069.53;;;14.74;49.63
80620;BME280;69979;53.682;-2.690;2023-07-13T09:48:59;101074.42;;;13.87;50.82
80620;BME280;69979;53.682;-2.690;2023-07-13T09:51:25;101085.80;;;13.22;52.18
80620;BME280;69979;53.682;-2.690;2023-07-13T09:53:50;101080.77;;;14.11;49.82
80620;BME280;69979;53.682;-2.690;2023-07-13T09:56:20;101088.87;;;13.81;49.83
80620;BME280;69979;53.682;-2.690;2023-07-13T09:58:43;101085.82;;;13.81;50.74
80620;BME280;69979;53.682;-2.690;2023-07-13T10:01:06;101086.94;;;14.87;47.48
80620;BME280;69979;53.682;-2.690;2023-07-13T10:03:33;101087.19;;;15.44;47.18
80620;BME280;69979;53.682;-2.690;2023-07-13T10:06:09;101086.45;;;15.57;48.25
80620;BME280;69979;53.682;-2.690;2023-07-13T10:08:26;101090.21;;;15.21;46.66
80620;BME280;69979;53.682;-2.690;2023-07-13T10:10:53;101093.55;;;14.94;47.85
80620;BME280;69979;53.682;-2.690;2023-07-13T10:13:24;101095.79;;;15.35;48.94
80620;BME280;69979;53.682;-2.690;2023-07-13T10:15:39;101096.24;;;15.91;45.26
80620;BME280;69979;53.682;-2.690;2023-07-13T10:18:04;101091.53;;;16.05;47.60
80620;BME280;69979;53.682;-2.690;2023-07-13T10:20:30;101099.45;;;14.80;48.37
80620;BME280;69979;53.682;-2.690;2023-07-13T10:22:59;101098.98;;;14.32;49.07
80620;BME280;69979;53.682;-2.690;2023-07-13T10:25:22;101100.72;;;14.20;49.02
80620;BME280;69979;53.682;-2.690;2023-07-13T10:27:46;101102.15;;;14.28;49.19
80620;BME280;69979;53.682;-2.690;2023-07-13T10:30:15;101098.52;;;15.11;47.83
80620;BME280;69979;53.682;-2.690;2023-07-13T10:32:37;101097.86;;;14.70;48.97
80620;BME280;69979;53.682;-2.690;2023-07-13T10:35:04;101099.10;;;15.55;47.68
80620;BME280;69979;53.682;-2.690;2023-07-13T10:37:30;101102.84;;;15.95;46.39
80620;BME280;69979;53.682;-2.690;2023-07-13T10:39:55;101108.51;;;14.44;48.59
80620;BME280;69979;53.682;-2.690;2023-07-13T10:42:25;101110.74;;;15.00;49.56
80620;BME280;69979;53.682;-2.690;2023-07-13T10:44:44;101108.79;;;14.26;48.62
80620;BME280;69979;53.682;-2.690;2023-07-13T10:47:15;101106.19;;;14.66;48.25
80620;BME280;69979;53.682;-2.690;2023-07-13T10:49:35;101103.50;;;13.70;50.44
80620;BME280;69979;53.682;-2.690;2023-07-13T10:52:01;101107.62;;;14.36;48.15
80620;BME280;69979;53.682;-2.690;2023-07-13T10:54:30;101112.89;;;14.62;48.88
80620;BME280;69979;53.682;-2.690;2023-07-13T10:57:06;101104.10;;;14.40;47.86
80620;BME280;69979;53.682;-2.690;2023-07-13T10:59:18;101114.38;;;13.65;50.31
80620;BME280;69979;53.682;-2.690;2023-07-13T11:01:51;101108.24;;;15.35;46.65
80620;BME280;69979;53.682;-2.690;2023-07-13T11:04:12;101111.40;;;13.58;48.92
80620;BME280;69979;53.682;-2.690;2023-07-13T11:06:37;101112.28;;;14.95;46.71
80620;BME280;69979;53.682;-2.690;2023-07-13T11:09:03;101106.33;;;15.33;46.65
80620;BME280;69979;53.682;-2.690;2023-07-13T11:11:33;101111.21;;;13.85;48.99
80620;BME280;69979;53.682;-2.690;2023-07-13T11:13:58;101114.86;;;15.49;47.02
80620;BME280;69979;53.682;-2.690;2023-07-13T11:18:40;101113.51;;;15.53;45.97
80620;BME280;69979;53.682;-2.690;2023-07-13T11:21:15;101110.01;;;16.95;43.71
80620;BME280;69979;53.682;-2.690;2023-07-13T11:23:31;101123.47;;;16.58;43.71
80620;BME280;69979;53.682;-2.690;2023-07-13T11:25:56;101113.64;;;16.93;43.50
80620;BME280;69979;53.682;-2.690;2023-07-13T11:28:25;101109.41;;;15.83;44.68
80620;BME280;69979;53.682;-2.690;2023-07-13T11:30:48;101112.67;;;15.26;46.76
80620;BME280;69979;53.682;-2.690;2023-07-13T11:33:16;101114.22;;;15.20;47.81
80620;BME280;69979;53.682;-2.690;2023-07-13T11:35:44;101119.45;;;15.43;47.79
80620;BME280;69979;53.682;-2.690;2023-07-13T11:38:03;101112.53;;;14.24;49.24
80620;BME280;69979;53.682;-2.690;2023-07-13T11:40:29;101106.72;;;15.33;47.32
80620;BME280;69979;53.682;-2.690;2023-07-13T11:42:59;101108.61;;;16.48;46.32
80620;BME280;69979;53.682;-2.690;2023-07-13T11:45:21;101108.63;;;15.55;47.15
80620;BME280;69979;53.682;-2.690;2023-07-13T11:47:45;101109.11;;;16.01;47.94
80620;BME280;69979;53.682;-2.690;2023-07-13T11:50:18;101105.13;;;15.12;46.87
80620;BME280;69979;53.682;-2.690;2023-07-13T11:52:36;101100.32;;;15.61;46.87
80620;BME280;69979;53.682;-2.690;2023-07-13T11:55:03;101099.95;;;15.19;49.36
80620;BME280;69979;53.682;-2.690;2023-07-13T11:57:29;101097.56;;;15.34;47.28
80620;BME280;69979;53.682;-2.690;2023-07-13T11:59:52;101096.53;;;16.00;44.63
80620;BME280;69979;53.682;-2.690;2023-07-13T12:02:21;101098.06;;;15.59;45.91
80620;BME280;69979;53.682;-2.690;2023-07-13T12:04:42;101094.15;;;16.79;44.94
80620;BME280;69979;53.682;-2.690;2023-07-13T12:07:15;101097.92;;;16.49;45.48
80620;BME280;69979;53.682;-2.690;2023-07-13T12:09:34;101105.09;;;15.84;45.57
80620;BME280;69979;53.682;-2.690;2023-07-13T12:11:58;101101.00;;;15.32;46.35
80620;BME280;69979;53.682;-2.690;2023-07-13T12:14:24;101101.79;;;15.96;44.79
80620;BME280;69979;53.682;-2.690;2023-07-13T12:16:49;101094.26;;;15.39;44.83
80620;BME280;69979;53.682;-2.690;2023-07-13T12:19:18;101092.40;;;15.70;44.90
80620;BME280;69979;53.682;-2.690;2023-07-13T12:21:42;101097.09;;;15.74;44.95
80620;BME280;69979;53.682;-2.690;2023-07-13T12:24:13;101095.90;;;14.68;47.33
80620;BME280;69979;53.682;-2.690;2023-07-13T12:26:31;101093.29;;;15.33;48.23
80620;BME280;69979;53.682;-2.690;2023-07-13T12:28:57;101094.33;;;14.92;50.36
80620;BME280;69979;53.682;-2.690;2023-07-13T12:31:30;101088.09;;;15.97;48.02
80620;BME280;69979;53.682;-2.690;2023-07-13T12:33:46;101089.67;;;16.22;46.65
80620;BME280;69979;53.682;-2.690;2023-07-13T12:36:12;101089.68;;;15.90;46.69